AYPY/POM METAR and TAF weather

Enter ICAO airport designator
Station Type Date Time Source
AYPY METAR 2021/05/11 00:00 UTC NOAA

AYPY 110000Z VRB04KT 9999 HZ FEW030 SCT100 29/24 Q1010=


Station Type Date Time Source
AYPY Decoded METAR 2021/05/11 00:00 UTC NOAA

Moresby, Papua New Guinea (AYPY) 09-26S 147-13E 49M
May 10, 2021 - 08:00 PM EDT / 2021.05.11 0000 UTC
Wind: Variable at 5 MPH (4 KT):0
Visibility: greater than 7 mile(s):0
Sky conditions: partly cloudy
Weather: haze
Temperature: 84 F (29 C)
Dew Point: 75 F (24 C)
Relative Humidity: 74%
Pressure (altimeter): 29.83 in. Hg (1010 hPa)
ob: AYPY 110000Z VRB04KT 9999 HZ FEW030 SCT100 29/24 Q1010=
cycle: 0

Station Type Date Time Source
AYPY TAF 2021/05/11 00:03 UTC NOAA

TAF TAF AYPY 102145Z 1100/1124 10008KT 9999 SCT018 SCT140
FM110500 16012KT 9999 -SHRA SCT018 BKN120

Example: see airport list